sensor_id;sensor_type;location;lat;lon;timestamp;temperature;humidity
1337;DHT22;662;48.814;9.318;2023-03-19T00:02:19;13.40;53.50
1337;DHT22;662;48.814;9.318;2023-03-19T00:04:45;13.40;53.60
1337;DHT22;662;48.814;9.318;2023-03-19T00:07:12;13.40;53.70
1337;DHT22;662;48.814;9.318;2023-03-19T00:09:38;13.40;53.80
1337;DHT22;662;48.814;9.318;2023-03-19T00:12:05;13.40;53.90
1337;DHT22;662;48.814;9.318;2023-03-19T00:14:31;13.30;53.90
1337;DHT22;662;48.814;9.318;2023-03-19T00:16:56;13.30;54.00
1337;DHT22;662;48.814;9.318;2023-03-19T00:19:22;13.30;53.90
1337;DHT22;662;48.814;9.318;2023-03-19T00:21:48;13.30;53.90
1337;DHT22;662;48.814;9.318;2023-03-19T00:24:13;13.30;54.00
1337;DHT22;662;48.814;9.318;2023-03-19T00:26:40;13.30;54.10
1337;DHT22;662;48.814;9.318;2023-03-19T00:29:06;13.20;54.00
1337;DHT22;662;48.814;9.318;2023-03-19T00:31:31;13.20;54.00
1337;DHT22;662;48.814;9.318;2023-03-19T00:33:57;13.20;54.10
1337;DHT22;662;48.814;9.318;2023-03-19T00:36:25;13.20;54.10
1337;DHT22;662;48.814;9.318;2023-03-19T00:38:51;13.20;54.10
1337;DHT22;662;48.814;9.318;2023-03-19T00:41:17;13.20;54.30
1337;DHT22;662;48.814;9.318;2023-03-19T00:43:45;13.20;54.30
1337;DHT22;662;48.814;9.318;2023-03-19T00:46:11;13.20;54.40
1337;DHT22;662;48.814;9.318;2023-03-19T00:48:36;13.20;54.50
1337;DHT22;662;48.814;9.318;2023-03-19T00:51:07;13.10;54.40
1337;DHT22;662;48.814;9.318;2023-03-19T00:53:40;13.20;54.60
1337;DHT22;662;48.814;9.318;2023-03-19T00:56:07;13.10;54.70
1337;DHT22;662;48.814;9.318;2023-03-19T00:58:33;13.10;54.80
1337;DHT22;662;48.814;9.318;2023-03-19T01:01:00;13.10;54.80
1337;DHT22;662;48.814;9.318;2023-03-19T01:03:26;13.10;54.90
1337;DHT22;662;48.814;9.318;2023-03-19T01:05:52;13.10;55.10
1337;DHT22;662;48.814;9.318;2023-03-19T01:08:18;13.00;55.10
1337;DHT22;662;48.814;9.318;2023-03-19T01:10:44;13.00;55.20
1337;DHT22;662;48.814;9.318;2023-03-19T01:13:11;13.00;55.30
1337;DHT22;662;48.814;9.318;2023-03-19T01:15:39;13.00;55.40
1337;DHT22;662;48.814;9.318;2023-03-19T01:18:05;13.00;55.50
1337;DHT22;662;48.814;9.318;2023-03-19T01:20:31;13.00;55.60
1337;DHT22;662;48.814;9.318;2023-03-19T01:22:56;13.00;55.90
1337;DHT22;662;48.814;9.318;2023-03-19T01:25:22;13.00;55.60
1337;DHT22;662;48.814;9.318;2023-03-19T01:27:49;13.00;55.70
1337;DHT22;662;48.814;9.318;2023-03-19T01:30:16;13.00;55.60
1337;DHT22;662;48.814;9.318;2023-03-19T01:32:42;13.00;55.60
1337;DHT22;662;48.814;9.318;2023-03-19T01:35:08;13.00;55.60
1337;DHT22;662;48.814;9.318;2023-03-19T01:37:34;13.00;55.70
1337;DHT22;662;48.814;9.318;2023-03-19T01:39:59;13.00;55.60
1337;DHT22;662;48.814;9.318;2023-03-19T01:42:25;13.00;55.60
1337;DHT22;662;48.814;9.318;2023-03-19T01:44:51;13.00;55.70
1337;DHT22;662;48.814;9.318;2023-03-19T01:47:27;13.00;55.70
1337;DHT22;662;48.814;9.318;2023-03-19T01:49:55;13.00;55.80
1337;DHT22;662;48.814;9.318;2023-03-19T01:52:23;13.00;55.90
1337;DHT22;662;48.814;9.318;2023-03-19T01:54:51;13.10;56.00
1337;DHT22;662;48.814;9.318;2023-03-19T01:57:18;13.00;55.90
1337;DHT22;662;48.814;9.318;2023-03-19T01:59:46;13.00;55.80
1337;DHT22;662;48.814;9.318;2023-03-19T02:02:27;13.00;55.70
1337;DHT22;662;48.814;9.318;2023-03-19T02:05:14;13.00;55.70
1337;DHT22;662;48.814;9.318;2023-03-19T02:07:43;13.00;55.70
1337;DHT22;662;48.814;9.318;2023-03-19T02:10:12;12.90;55.80
1337;DHT22;662;48.814;9.318;2023-03-19T02:12:38;12.90;55.80
1337;DHT22;662;48.814;9.318;2023-03-19T02:15:04;12.90;56.00
1337;DHT22;662;48.814;9.318;2023-03-19T02:17:30;12.90;56.20
1337;DHT22;662;48.814;9.318;2023-03-19T02:22:34;12.90;56.10
1337;DHT22;662;48.814;9.318;2023-03-19T02:25:14;12.90;56.20
1337;DHT22;662;48.814;9.318;2023-03-19T02:27:41;12.90;56.30
1337;DHT22;662;48.814;9.318;2023-03-19T02:30:29;12.80;56.20
1337;DHT22;662;48.814;9.318;2023-03-19T02:32:56;12.80;56.20
1337;DHT22;662;48.814;9.318;2023-03-19T02:35:21;12.80;56.20
1337;DHT22;662;48.814;9.318;2023-03-19T02:37:47;12.80;56.20
1337;DHT22;662;48.814;9.318;2023-03-19T02:40:21;12.80;56.20
1337;DHT22;662;48.814;9.318;2023-03-19T02:42:49;12.80;56.20
1337;DHT22;662;48.814;9.318;2023-03-19T02:45:14;12.70;56.10
1337;DHT22;662;48.814;9.318;2023-03-19T02:47:41;12.70;56.30
1337;DHT22;662;48.814;9.318;2023-03-19T02:50:09;12.80;56.60
1337;DHT22;662;48.814;9.318;2023-03-19T02:52:35;12.70;56.60
1337;DHT22;662;48.814;9.318;2023-03-19T02:55:01;12.70;56.60
1337;DHT22;662;48.814;9.318;2023-03-19T02:57:26;12.70;56.80
1337;DHT22;662;48.814;9.318;2023-03-19T02:59:52;12.70;56.90
1337;DHT22;662;48.814;9.318;2023-03-19T03:02:18;12.70;57.30
1337;DHT22;662;48.814;9.318;2023-03-19T03:04:44;12.60;57.60
1337;DHT22;662;48.814;9.318;2023-03-19T03:07:10;12.60;58.30
1337;DHT22;662;48.814;9.318;2023-03-19T03:09:36;12.50;58.70
1337;DHT22;662;48.814;9.318;2023-03-19T03:12:02;12.50;59.00
1337;DHT22;662;48.814;9.318;2023-03-19T03:14:27;12.50;59.40
1337;DHT22;662;48.814;9.318;2023-03-19T03:16:53;12.40;59.60
1337;DHT22;662;48.814;9.318;2023-03-19T03:19:18;12.40;59.80
1337;DHT22;662;48.814;9.318;2023-03-19T03:24:57;12.40;60.60
1337;DHT22;662;48.814;9.318;2023-03-19T03:27:23;12.40;61.00
1337;DHT22;662;48.814;9.318;2023-03-19T03:29:48;12.40;61.40
1337;DHT22;662;48.814;9.318;2023-03-19T03:32:14;12.30;61.80
1337;DHT22;662;48.814;9.318;2023-03-19T03:34:40;12.30;62.00
1337;DHT22;662;48.814;9.318;2023-03-19T03:37:06;12.40;62.30
1337;DHT22;662;48.814;9.318;2023-03-19T03:39:31;12.40;62.30
1337;DHT22;662;48.814;9.318;2023-03-19T03:41:57;12.40;62.30
1337;DHT22;662;48.814;9.318;2023-03-19T03:44:23;12.40;62.40
1337;DHT22;662;48.814;9.318;2023-03-19T03:46:48;12.40;62.40
1337;DHT22;662;48.814;9.318;2023-03-19T03:49:14;12.30;62.40
1337;DHT22;662;48.814;9.318;2023-03-19T03:51:40;12.30;62.60
1337;DHT22;662;48.814;9.318;2023-03-19T03:54:06;12.30;62.80
1337;DHT22;662;48.814;9.318;2023-03-19T03:56:32;12.20;63.00
1337;DHT22;662;48.814;9.318;2023-03-19T03:58:58;12.20;63.20
1337;DHT22;662;48.814;9.318;2023-03-19T04:01:23;12.20;63.30
1337;DHT22;662;48.814;9.318;2023-03-19T04:03:49;12.20;63.30
1337;DHT22;662;48.814;9.318;2023-03-19T04:06:16;12.20;63.30
1337;DHT22;662;48.814;9.318;2023-03-19T04:08:43;12.20;63.10
1337;DHT22;662;48.814;9.318;2023-03-19T04:11:09;12.20;63.20
1337;DHT22;662;48.814;9.318;2023-03-19T04:13:35;12.20;63.30
1337;DHT22;662;48.814;9.318;2023-03-19T04:16:10;12.30;63.60
1337;DHT22;662;48.814;9.318;2023-03-19T04:18:36;12.30;63.60
1337;DHT22;662;48.814;9.318;2023-03-19T04:21:03;12.30;63.50
1337;DHT22;662;48.814;9.318;2023-03-19T04:23:29;12.30;63.40
1337;DHT22;662;48.814;9.318;2023-03-19T04:26:00;12.30;63.60
1337;DHT22;662;48.814;9.318;2023-03-19T04:28:26;12.30;63.50
1337;DHT22;662;48.814;9.318;2023-03-19T04:30:52;12.30;63.40
1337;DHT22;662;48.814;9.318;2023-03-19T04:33:17;12.30;63.40
1337;DHT22;662;48.814;9.318;2023-03-19T04:35:43;12.30;63.40
1337;DHT22;662;48.814;9.318;2023-03-19T04:38:09;12.30;63.50
1337;DHT22;662;48.814;9.318;2023-03-19T04:40:34;12.40;63.60
1337;DHT22;662;48.814;9.318;2023-03-19T04:43:00;12.40;63.60
1337;DHT22;662;48.814;9.318;2023-03-19T04:45:27;12.40;63.60
1337;DHT22;662;48.814;9.318;2023-03-19T04:47:52;12.40;63.60
1337;DHT22;662;48.814;9.318;2023-03-19T04:50:18;12.40;63.60
1337;DHT22;662;48.814;9.318;2023-03-19T04:52:44;12.40;63.60
1337;DHT22;662;48.814;9.318;2023-03-19T04:55:10;12.40;63.70
1337;DHT22;662;48.814;9.318;2023-03-19T04:57:36;12.40;63.80
1337;DHT22;662;48.814;9.318;2023-03-19T05:00:02;12.40;63.90
1337;DHT22;662;48.814;9.318;2023-03-19T05:02:27;12.40;64.10
1337;DHT22;662;48.814;9.318;2023-03-19T05:04:53;12.40;64.00
1337;DHT22;662;48.814;9.318;2023-03-19T05:07:19;12.40;64.10
1337;DHT22;662;48.814;9.318;2023-03-19T05:09:45;12.40;64.00
1337;DHT22;662;48.814;9.318;2023-03-19T05:12:12;12.40;64.00
1337;DHT22;662;48.814;9.318;2023-03-19T05:14:38;12.40;64.10
1337;DHT22;662;48.814;9.318;2023-03-19T05:17:03;12.40;64.30
1337;DHT22;662;48.814;9.318;2023-03-19T05:19:29;12.40;64.50
1337;DHT22;662;48.814;9.318;2023-03-19T05:21:55;12.40;64.60
1337;DHT22;662;48.814;9.318;2023-03-19T05:24:23;12.40;64.60
1337;DHT22;662;48.814;9.318;2023-03-19T05:26:49;12.40;64.60
1337;DHT22;662;48.814;9.318;2023-03-19T05:29:15;12.40;64.60
1337;DHT22;662;48.814;9.318;2023-03-19T05:31:40;12.40;64.60
1337;DHT22;662;48.814;9.318;2023-03-19T05:34:06;12.40;64.60
1337;DHT22;662;48.814;9.318;2023-03-19T05:36:32;12.40;64.80
1337;DHT22;662;48.814;9.318;2023-03-19T05:38:59;12.40;65.00
1337;DHT22;662;48.814;9.318;2023-03-19T05:41:25;12.40;65.20
1337;DHT22;662;48.814;9.318;2023-03-19T05:43:51;12.40;65.40
1337;DHT22;662;48.814;9.318;2023-03-19T05:46:17;12.30;65.50
1337;DHT22;662;48.814;9.318;2023-03-19T05:48:42;12.30;65.80
1337;DHT22;662;48.814;9.318;2023-03-19T05:51:08;12.30;66.10
1337;DHT22;662;48.814;9.318;2023-03-19T05:53:34;12.30;66.10
1337;DHT22;662;48.814;9.318;2023-03-19T05:55:59;12.30;66.10
1337;DHT22;662;48.814;9.318;2023-03-19T05:58:25;12.30;66.10
1337;DHT22;662;48.814;9.318;2023-03-19T06:00:53;12.30;66.10
1337;DHT22;662;48.814;9.318;2023-03-19T06:03:21;12.30;66.10
1337;DHT22;662;48.814;9.318;2023-03-19T06:05:50;12.30;66.20
1337;DHT22;662;48.814;9.318;2023-03-19T06:08:16;12.40;66.50
1337;DHT22;662;48.814;9.318;2023-03-19T06:10:41;12.30;67.00
1337;DHT22;662;48.814;9.318;2023-03-19T06:13:08;12.40;66.20
1337;DHT22;662;48.814;9.318;2023-03-19T06:15:33;12.40;66.10
1337;DHT22;662;48.814;9.318;2023-03-19T06:17:59;12.40;65.50
1337;DHT22;662;48.814;9.318;2023-03-19T06:20:25;12.40;65.10
1337;DHT22;662;48.814;9.318;2023-03-19T06:22:51;12.40;65.00
1337;DHT22;662;48.814;9.318;2023-03-19T06:25:16;12.40;65.10
1337;DHT22;662;48.814;9.318;2023-03-19T06:27:42;12.50;65.30
1337;DHT22;662;48.814;9.318;2023-03-19T06:30:08;12.50;65.30
1337;DHT22;662;48.814;9.318;2023-03-19T06:32:35;12.50;65.40
1337;DHT22;662;48.814;9.318;2023-03-19T06:35:01;12.50;65.60
1337;DHT22;662;48.814;9.318;2023-03-19T06:37:27;12.50;65.70
1337;DHT22;662;48.814;9.318;2023-03-19T06:39:53;12.50;65.80
1337;DHT22;662;48.814;9.318;2023-03-19T06:42:21;12.50;65.80
1337;DHT22;662;48.814;9.318;2023-03-19T06:44:47;12.50;65.90
1337;DHT22;662;48.814;9.318;2023-03-19T06:47:13;12.50;65.80
1337;DHT22;662;48.814;9.318;2023-03-19T06:49:39;12.50;65.80
1337;DHT22;662;48.814;9.318;2023-03-19T06:52:05;12.60;65.60
1337;DHT22;662;48.814;9.318;2023-03-19T06:54:34;12.60;65.20
1337;DHT22;662;48.814;9.318;2023-03-19T06:57:00;12.70;65.00
1337;DHT22;662;48.814;9.318;2023-03-19T06:59:26;12.70;64.80
1337;DHT22;662;48.814;9.318;2023-03-19T07:01:52;12.80;64.80
1337;DHT22;662;48.814;9.318;2023-03-19T07:04:18;12.80;65.00
1337;DHT22;662;48.814;9.318;2023-03-19T07:06:43;12.80;65.00
1337;DHT22;662;48.814;9.318;2023-03-19T07:09:09;12.80;65.00
1337;DHT22;662;48.814;9.318;2023-03-19T07:11:36;12.80;65.10
1337;DHT22;662;48.814;9.318;2023-03-19T07:14:02;12.90;65.40
1337;DHT22;662;48.814;9.318;2023-03-19T07:16:28;12.90;65.60
1337;DHT22;662;48.814;9.318;2023-03-19T07:18:54;13.00;65.80
1337;DHT22;662;48.814;9.318;2023-03-19T07:21:20;13.00;65.80
1337;DHT22;662;48.814;9.318;2023-03-19T07:23:46;13.10;65.90
1337;DHT22;662;48.814;9.318;2023-03-19T07:26:12;13.10;65.80
1337;DHT22;662;48.814;9.318;2023-03-19T07:28:38;13.20;65.50
1337;DHT22;662;48.814;9.318;2023-03-19T07:31:04;13.30;65.50
1337;DHT22;662;48.814;9.318;2023-03-19T07:33:30;13.30;65.40
1337;DHT22;662;48.814;9.318;2023-03-19T07:35:58;13.30;65.30
1337;DHT22;662;48.814;9.318;2023-03-19T07:38:24;13.40;65.10
1337;DHT22;662;48.814;9.318;2023-03-19T07:40:50;13.40;64.70
1337;DHT22;662;48.814;9.318;2023-03-19T07:43:16;13.50;64.70
1337;DHT22;662;48.814;9.318;2023-03-19T07:45:41;13.50;64.30
1337;DHT22;662;48.814;9.318;2023-03-19T07:48:07;13.60;64.20
1337;DHT22;662;48.814;9.318;2023-03-19T07:50:33;13.60;63.90
1337;DHT22;662;48.814;9.318;2023-03-19T07:52:59;13.70;63.80
1337;DHT22;662;48.814;9.318;2023-03-19T07:55:25;13.70;63.50
1337;DHT22;662;48.814;9.318;2023-03-19T07:57:51;13.80;63.20
1337;DHT22;662;48.814;9.318;2023-03-19T08:00:17;13.80;62.90
1337;DHT22;662;48.814;9.318;2023-03-19T08:02:43;13.90;62.60
1337;DHT22;662;48.814;9.318;2023-03-19T08:05:09;13.90;62.50
1337;DHT22;662;48.814;9.318;2023-03-19T08:07:35;13.90;62.30
1337;DHT22;662;48.814;9.318;2023-03-19T08:10:03;14.00;62.00
1337;DHT22;662;48.814;9.318;2023-03-19T08:12:28;14.00;61.80
1337;DHT22;662;48.814;9.318;2023-03-19T08:14:56;13.90;61.60
1337;DHT22;662;48.814;9.318;2023-03-19T08:17:21;13.90;61.80
1337;DHT22;662;48.814;9.318;2023-03-19T08:19:47;13.90;61.80
1337;DHT22;662;48.814;9.318;2023-03-19T08:22:13;14.00;61.80
1337;DHT22;662;48.814;9.318;2023-03-19T08:24:38;14.00;61.90
1337;DHT22;662;48.814;9.318;2023-03-19T08:27:04;14.00;61.90
1337;DHT22;662;48.814;9.318;2023-03-19T08:29:30;14.10;61.90
1337;DHT22;662;48.814;9.318;2023-03-19T08:31:55;14.10;61.90
1337;DHT22;662;48.814;9.318;2023-03-19T08:34:23;14.20;61.60
1337;DHT22;662;48.814;9.318;2023-03-19T08:36:48;14.20;61.20
1337;DHT22;662;48.814;9.318;2023-03-19T08:39:14;14.20;60.90
1337;DHT22;662;48.814;9.318;2023-03-19T08:41:40;14.30;61.00
1337;DHT22;662;48.814;9.318;2023-03-19T08:44:06;14.30;60.80
1337;DHT22;662;48.814;9.318;2023-03-19T08:46:31;14.40;60.90
1337;DHT22;662;48.814;9.318;2023-03-19T08:48:58;14.50;60.80
1337;DHT22;662;48.814;9.318;2023-03-19T08:51:23;14.60;60.70
1337;DHT22;662;48.814;9.318;2023-03-19T08:53:51;14.60;60.40
1337;DHT22;662;48.814;9.318;2023-03-19T08:56:17;14.70;60.00
1337;DHT22;662;48.814;9.318;2023-03-19T08:58:42;14.80;59.70
1337;DHT22;662;48.814;9.318;2023-03-19T09:01:11;14.80;59.50
1337;DHT22;662;48.814;9.318;2023-03-19T09:03:39;14.90;59.40
1337;DHT22;662;48.814;9.318;2023-03-19T09:06:07;15.00;59.30
1337;DHT22;662;48.814;9.318;2023-03-19T09:08:34;15.10;59.30
1337;DHT22;662;48.814;9.318;2023-03-19T09:11:00;15.20;59.50
1337;DHT22;662;48.814;9.318;2023-03-19T09:13:26;15.30;59.60
1337;DHT22;662;48.814;9.318;2023-03-19T09:15:52;15.40;59.60
1337;DHT22;662;48.814;9.318;2023-03-19T09:18:18;15.50;59.50
1337;DHT22;662;48.814;9.318;2023-03-19T09:20:50;15.70;59.20
1337;DHT22;662;48.814;9.318;2023-03-19T09:23:16;16.10;59.30
1337;DHT22;662;48.814;9.318;2023-03-19T09:25:42;16.70;58.50
1337;DHT22;662;48.814;9.318;2023-03-19T09:28:08;17.10;57.60
1337;DHT22;662;48.814;9.318;2023-03-19T09:30:33;17.50;57.30
1337;DHT22;662;48.814;9.318;2023-03-19T09:32:59;18.40;56.50
1337;DHT22;662;48.814;9.318;2023-03-19T09:35:25;18.90;54.70
1337;DHT22;662;48.814;9.318;2023-03-19T09:37:56;19.10;54.00
1337;DHT22;662;48.814;9.318;2023-03-19T09:40:27;19.50;53.60
1337;DHT22;662;48.814;9.318;2023-03-19T09:42:57;19.60;52.50
1337;DHT22;662;48.814;9.318;2023-03-19T09:45:27;19.40;50.30
1337;DHT22;662;48.814;9.318;2023-03-19T09:47:59;19.50;49.60
1337;DHT22;662;48.814;9.318;2023-03-19T09:50:29;19.50;49.70
1337;DHT22;662;48.814;9.318;2023-03-19T09:53:22;19.60;49.80
1337;DHT22;662;48.814;9.318;2023-03-19T09:55:52;19.70;48.70
1337;DHT22;662;48.814;9.318;2023-03-19T09:58:53;20.00;48.60
1337;DHT22;662;48.814;9.318;2023-03-19T10:01:26;20.20;48.60
1337;DHT22;662;48.814;9.318;2023-03-19T10:04:15;20.60;47.60
1337;DHT22;662;48.814;9.318;2023-03-19T10:06:44;21.30;46.20
1337;DHT22;662;48.814;9.318;2023-03-19T10:12:07;22.90;41.80
1337;DHT22;662;48.814;9.318;2023-03-19T10:17:29;22.90;39.10
1337;DHT22;662;48.814;9.318;2023-03-19T10:20:02;22.60;37.50
1337;DHT22;662;48.814;9.318;2023-03-19T10:22:53;22.30;37.40
1337;DHT22;662;48.814;9.318;2023-03-19T10:25:25;22.00;39.50
1337;DHT22;662;48.814;9.318;2023-03-19T10:27:59;21.70;38.10
1337;DHT22;662;48.814;9.318;2023-03-19T10:30:32;21.30;38.60
1337;DHT22;662;48.814;9.318;2023-03-19T10:33:21;20.90;38.40
1337;DHT22;662;48.814;9.318;2023-03-19T10:35:55;20.80;39.20
1337;DHT22;662;48.814;9.318;2023-03-19T10:38:24;20.60;39.50
1337;DHT22;662;48.814;9.318;2023-03-19T10:43:52;20.20;40.80
1337;DHT22;662;48.814;9.318;2023-03-19T10:46:18;20.00;40.60
1337;DHT22;662;48.814;9.318;2023-03-19T10:48:46;19.90;41.20
1337;DHT22;662;48.814;9.318;2023-03-19T10:51:22;19.80;42.00
1337;DHT22;662;48.814;9.318;2023-03-19T10:53:51;19.70;42.50
1337;DHT22;662;48.814;9.318;2023-03-19T10:56:21;19.70;42.90
1337;DHT22;662;48.814;9.318;2023-03-19T10:59:01;19.60;43.40
1337;DHT22;662;48.814;9.318;2023-03-19T11:01:32;19.60;43.80
1337;DHT22;662;48.814;9.318;2023-03-19T11:03:59;19.60;44.10
1337;DHT22;662;48.814;9.318;2023-03-19T11:06:31;19.50;43.70
1337;DHT22;662;48.814;9.318;2023-03-19T11:09:00;19.50;43.40
1337;DHT22;662;48.814;9.318;2023-03-19T11:11:42;19.50;43.90
1337;DHT22;662;48.814;9.318;2023-03-19T11:14:21;19.50;44.10
1337;DHT22;662;48.814;9.318;2023-03-19T11:19:31;19.70;43.80
1337;DHT22;662;48.814;9.318;2023-03-19T11:22:13;20.00;43.70
1337;DHT22;662;48.814;9.318;2023-03-19T11:24:42;20.30;43.30
1337;DHT22;662;48.814;9.318;2023-03-19T11:27:12;20.50;43.20
1337;DHT22;662;48.814;9.318;2023-03-19T11:29:42;20.80;43.10
1337;DHT22;662;48.814;9.318;2023-03-19T11:35:24;21.40;39.70
1337;DHT22;662;48.814;9.318;2023-03-19T11:37:58;21.40;39.40
1337;DHT22;662;48.814;9.318;2023-03-19T11:51:21;21.40;38.00
1337;DHT22;662;48.814;9.318;2023-03-19T11:54:25;21.50;37.80
1337;DHT22;662;48.814;9.318;2023-03-19T11:57:03;21.70;38.10
1337;DHT22;662;48.814;9.318;2023-03-19T12:06:23;22.50;36.40
1337;DHT22;662;48.814;9.318;2023-03-19T12:09:01;22.40;36.10
1337;DHT22;662;48.814;9.318;2023-03-19T12:19:38;21.90;36.50
1337;DHT22;662;48.814;9.318;2023-03-19T12:33:09;22.30;34.40
1337;DHT22;662;48.814;9.318;2023-03-19T12:35:38;22.20;35.50
1337;DHT22;662;48.814;9.318;2023-03-19T12:40:42;22.00;35.80
1337;DHT22;662;48.814;9.318;2023-03-19T12:46:25;22.00;35.40
1337;DHT22;662;48.814;9.318;2023-03-19T12:54:46;22.00;36.20
1337;DHT22;662;48.814;9.318;2023-03-19T12:57:41;22.00;36.00
1337;DHT22;662;48.814;9.318;2023-03-19T13:05:40;23.00;35.70
1337;DHT22;662;48.814;9.318;2023-03-19T13:08:15;23.00;35.20
1337;DHT22;662;48.814;9.318;2023-03-19T13:10:45;22.90;35.10
1337;DHT22;662;48.814;9.318;2023-03-19T13:16:00;22.20;35.80
1337;DHT22;662;48.814;9.318;2023-03-19T13:18:36;21.70;36.00
1337;DHT22;662;48.814;9.318;2023-03-19T13:23:45;21.10;38.70
1337;DHT22;662;48.814;9.318;2023-03-19T13:26:12;20.80;39.70
1337;DHT22;662;48.814;9.318;2023-03-19T13:29:00;20.50;40.90
1337;DHT22;662;48.814;9.318;2023-03-19T13:31:27;20.20;41.10
1337;DHT22;662;48.814;9.318;2023-03-19T13:34:23;19.90;41.90
1337;DHT22;662;48.814;9.318;2023-03-19T13:39:32;19.30;44.00
1337;DHT22;662;48.814;9.318;2023-03-19T13:42:36;19.00;45.60
1337;DHT22;662;48.814;9.318;2023-03-19T13:45:03;18.80;47.40
1337;DHT22;662;48.814;9.318;2023-03-19T13:47:50;18.50;49.50
1337;DHT22;662;48.814;9.318;2023-03-19T13:52:49;18.10;51.60
1337;DHT22;662;48.814;9.318;2023-03-19T13:55:49;18.10;52.30
1337;DHT22;662;48.814;9.318;2023-03-19T13:58:24;18.10;53.20
1337;DHT22;662;48.814;9.318;2023-03-19T14:01:10;18.10;53.80
1337;DHT22;662;48.814;9.318;2023-03-19T14:03:39;18.10;54.20
1337;DHT22;662;48.814;9.318;2023-03-19T14:06:29;18.10;54.80
1337;DHT22;662;48.814;9.318;2023-03-19T14:08:58;18.10;55.10
1337;DHT22;662;48.814;9.318;2023-03-19T14:11:28;18.00;55.00
1337;DHT22;662;48.814;9.318;2023-03-19T14:13:54;17.90;55.10
1337;DHT22;662;48.814;9.318;2023-03-19T14:16:26;17.90;55.40
1337;DHT22;662;48.814;9.318;2023-03-19T14:19:00;17.80;55.80
1337;DHT22;662;48.814;9.318;2023-03-19T14:26:53;17.60;56.10
1337;DHT22;662;48.814;9.318;2023-03-19T14:29:19;17.50;56.40
1337;DHT22;662;48.814;9.318;2023-03-19T14:31:58;17.40;56.50
1337;DHT22;662;48.814;9.318;2023-03-19T14:34:41;17.30;56.90
1337;DHT22;662;48.814;9.318;2023-03-19T14:37:23;17.20;57.10
1337;DHT22;662;48.814;9.318;2023-03-19T14:40:15;17.30;57.40
1337;DHT22;662;48.814;9.318;2023-03-19T14:43:02;17.50;57.50
1337;DHT22;662;48.814;9.318;2023-03-19T14:45:59;17.60;57.80
1337;DHT22;662;48.814;9.318;2023-03-19T14:51:44;17.70;57.90
1337;DHT22;662;48.814;9.318;2023-03-19T14:57:05;17.80;58.00
1337;DHT22;662;48.814;9.318;2023-03-19T14:59:38;17.80;58.00
1337;DHT22;662;48.814;9.318;2023-03-19T15:02:09;17.70;57.90
1337;DHT22;662;48.814;9.318;2023-03-19T15:04:43;17.70;57.80
1337;DHT22;662;48.814;9.318;2023-03-19T15:07:20;17.70;57.50
1337;DHT22;662;48.814;9.318;2023-03-19T15:09:53;17.70;57.50
1337;DHT22;662;48.814;9.318;2023-03-19T15:17:29;17.60;56.80
1337;DHT22;662;48.814;9.318;2023-03-19T15:19:59;17.60;56.80
1337;DHT22;662;48.814;9.318;2023-03-19T15:22:30;17.60;56.90
1337;DHT22;662;48.814;9.318;2023-03-19T15:25:11;17.50;57.10
1337;DHT22;662;48.814;9.318;2023-03-19T15:27:37;17.50;57.20
1337;DHT22;662;48.814;9.318;2023-03-19T15:30:25;17.50;57.40
1337;DHT22;662;48.814;9.318;2023-03-19T15:32:52;17.40;57.30
1337;DHT22;662;48.814;9.318;2023-03-19T15:35:20;17.30;57.20
1337;DHT22;662;48.814;9.318;2023-03-19T15:37:52;17.30;57.40
1337;DHT22;662;48.814;9.318;2023-03-19T15:40:22;17.20;56.90
1337;DHT22;662;48.814;9.318;2023-03-19T15:42:50;17.10;56.50
1337;DHT22;662;48.814;9.318;2023-03-19T15:45:21;17.10;56.50
1337;DHT22;662;48.814;9.318;2023-03-19T15:50:30;17.00;56.70
1337;DHT22;662;48.814;9.318;2023-03-19T15:53:01;16.90;56.60
1337;DHT22;662;48.814;9.318;2023-03-19T15:55:27;16.80;56.40
1337;DHT22;662;48.814;9.318;2023-03-19T15:57:55;16.80;56.30
1337;DHT22;662;48.814;9.318;2023-03-19T16:00:21;16.70;56.30
1337;DHT22;662;48.814;9.318;2023-03-19T16:02:49;16.70;56.30
1337;DHT22;662;48.814;9.318;2023-03-19T16:05:28;16.70;56.30
1337;DHT22;662;48.814;9.318;2023-03-19T16:08:20;16.70;57.00
1337;DHT22;662;48.814;9.318;2023-03-19T16:10:46;16.70;56.50
1337;DHT22;662;48.814;9.318;2023-03-19T16:18:26;16.60;57.10
1337;DHT22;662;48.814;9.318;2023-03-19T16:21:07;16.50;56.80
1337;DHT22;662;48.814;9.318;2023-03-19T16:23:37;16.40;56.70
1337;DHT22;662;48.814;9.318;2023-03-19T16:26:27;16.30;56.90
1337;DHT22;662;48.814;9.318;2023-03-19T16:29:23;16.20;56.80
1337;DHT22;662;48.814;9.318;2023-03-19T16:32:18;16.10;56.70
1337;DHT22;662;48.814;9.318;2023-03-19T16:34:45;15.90;56.70
1337;DHT22;662;48.814;9.318;2023-03-19T16:37:32;15.90;57.20
1337;DHT22;662;48.814;9.318;2023-03-19T16:45:18;15.50;59.20
1337;DHT22;662;48.814;9.318;2023-03-19T16:47:49;15.50;59.80
1337;DHT22;662;48.814;9.318;2023-03-19T16:50:16;15.40;60.30
1337;DHT22;662;48.814;9.318;2023-03-19T16:52:44;15.40;61.10
1337;DHT22;662;48.814;9.318;2023-03-19T16:55:25;15.40;61.50
1337;DHT22;662;48.814;9.318;2023-03-19T16:57:58;15.30;62.00
1337;DHT22;662;48.814;9.318;2023-03-19T17:00:25;15.20;62.40
1337;DHT22;662;48.814;9.318;2023-03-19T17:02:51;15.20;62.80
1337;DHT22;662;48.814;9.318;2023-03-19T17:05:18;15.10;63.30
1337;DHT22;662;48.814;9.318;2023-03-19T17:07:43;15.00;63.60
1337;DHT22;662;48.814;9.318;2023-03-19T17:10:17;15.00;64.00
1337;DHT22;662;48.814;9.318;2023-03-19T17:12:44;14.90;64.10
1337;DHT22;662;48.814;9.318;2023-03-19T17:15:34;14.90;64.50
1337;DHT22;662;48.814;9.318;2023-03-19T17:18:01;14.80;64.70
1337;DHT22;662;48.814;9.318;2023-03-19T17:20:31;14.70;64.80
1337;DHT22;662;48.814;9.318;2023-03-19T17:22:58;14.70;65.20
1337;DHT22;662;48.814;9.318;2023-03-19T17:25:23;14.60;65.50
1337;DHT22;662;48.814;9.318;2023-03-19T17:27:49;14.50;66.00
1337;DHT22;662;48.814;9.318;2023-03-19T17:30:15;14.40;66.40
1337;DHT22;662;48.814;9.318;2023-03-19T17:32:45;14.40;66.60
1337;DHT22;662;48.814;9.318;2023-03-19T17:35:17;14.40;66.80
1337;DHT22;662;48.814;9.318;2023-03-19T17:37:43;14.40;66.90
1337;DHT22;662;48.814;9.318;2023-03-19T17:42:42;14.30;66.90
1337;DHT22;662;48.814;9.318;2023-03-19T17:45:13;14.30;67.00
1337;DHT22;662;48.814;9.318;2023-03-19T17:47:39;14.30;67.10
1337;DHT22;662;48.814;9.318;2023-03-19T17:50:09;14.30;67.30
1337;DHT22;662;48.814;9.318;2023-03-19T17:52:37;14.30;67.50
1337;DHT22;662;48.814;9.318;2023-03-19T17:55:24;14.30;67.70
1337;DHT22;662;48.814;9.318;2023-03-19T17:57:50;14.30;68.00
1337;DHT22;662;48.814;9.318;2023-03-19T18:00:18;14.20;67.90
1337;DHT22;662;48.814;9.318;2023-03-19T18:02:45;14.20;68.10
1337;DHT22;662;48.814;9.318;2023-03-19T18:05:18;14.10;68.50
1337;DHT22;662;48.814;9.318;2023-03-19T18:07:45;14.00;68.80
1337;DHT22;662;48.814;9.318;2023-03-19T18:10:23;13.90;69.10
1337;DHT22;662;48.814;9.318;2023-03-19T18:12:50;13.80;69.50
1337;DHT22;662;48.814;9.318;2023-03-19T18:15:17;13.80;70.00
1337;DHT22;662;48.814;9.318;2023-03-19T18:17:55;13.70;70.20
1337;DHT22;662;48.814;9.318;2023-03-19T18:20:24;13.60;70.60
1337;DHT22;662;48.814;9.318;2023-03-19T18:22:50;13.60;70.90
1337;DHT22;662;48.814;9.318;2023-03-19T18:25:22;13.60;71.10
1337;DHT22;662;48.814;9.318;2023-03-19T18:27:48;13.70;71.40
1337;DHT22;662;48.814;9.318;2023-03-19T18:30:17;13.70;71.50